createdAt,value
2019-02-27T00:00:39.765Z,0
2019-02-27T00:02:10.282Z,0
2019-02-27T00:03:40.787Z,0
2019-02-27T00:06:41.081Z,0
2019-02-27T00:08:12.351Z,0
2019-02-27T00:09:42.836Z,0
2019-02-27T00:10:55.880Z,0
2019-02-27T00:12:08.910Z,0
2019-02-27T00:13:39.041Z,0
2019-02-27T00:18:10.955Z,0
2019-02-27T00:22:42.491Z,0
2019-02-27T00:24:12.099Z,0
2019-02-27T00:25:43.515Z,0
2019-02-27T00:28:09.588Z,0
2019-02-27T00:35:42.135Z,0
2019-02-27T00:37:12.647Z,0
2019-02-27T00:41:44.193Z,0
2019-02-27T00:42:57.223Z,0
2019-02-27T00:45:40.771Z,0
2019-02-27T00:51:42.810Z,0
2019-02-27T00:54:43.084Z,0
2019-02-27T00:56:14.036Z,0
2019-02-27T00:57:44.862Z,0
2019-02-27T00:58:57.090Z,0
2019-02-27T01:00:10.939Z,0
2019-02-27T01:01:41.442Z,0
2019-02-27T01:04:42.462Z,0
2019-02-27T01:06:12.980Z,0
2019-02-27T01:13:45.539Z,0
2019-02-27T01:14:58.576Z,0
2019-02-27T01:16:11.610Z,0
2019-02-27T01:20:43.014Z,0
2019-02-27T01:23:44.167Z,0
2019-02-27T01:25:14.680Z,0
2019-02-27T01:26:45.192Z,0
2019-02-27T01:28:15.705Z,0
2019-02-27T01:30:59.260Z,0
2019-02-27T01:33:42.795Z,0
2019-02-27T01:38:14.337Z,0
2019-02-27T01:42:45.872Z,0
2019-02-27T01:44:16.389Z,0
2019-02-27T01:49:43.047Z,0
2019-02-27T01:52:44.503Z,0
2019-02-27T01:54:15.012Z,0
2019-02-27T01:57:16.054Z,0
2019-02-27T02:03:00.617Z,0
2019-02-27T02:04:13.064Z,0
2019-02-27T02:07:14.671Z,0
2019-02-27T02:08:45.187Z,0
2019-02-27T02:11:46.021Z,0
2019-02-27T02:13:16.721Z,0
2019-02-27T02:17:48.259Z,0
2019-02-27T02:19:01.300Z,0
2019-02-27T02:23:15.372Z,0
2019-02-27T02:27:46.089Z,0
2019-02-27T02:30:47.091Z,0
2019-02-27T02:32:18.042Z,0
2019-02-27T02:35:01.981Z,0
2019-02-27T02:36:15.009Z,0
2019-02-27T02:37:45.521Z,0
2019-02-27T02:40:46.549Z,0
2019-02-27T02:42:17.054Z,0
2019-02-27T02:45:18.084Z,0
2019-02-27T02:51:02.651Z,0
2019-02-27T02:52:15.680Z,0
2019-02-27T02:55:16.710Z,0
2019-02-27T02:56:47.212Z,0
2019-02-27T02:59:48.239Z,0
2019-02-27T03:01:18.751Z,0
2019-02-27T03:02:49.026Z,0
2019-02-27T03:04:19.779Z,0
2019-02-27T03:05:50.285Z,0
2019-02-27T03:09:46.868Z,0
2019-02-27T03:11:17.378Z,0
2019-02-27T03:15:48.922Z,0
2019-02-27T03:20:20.462Z,0
2019-02-27T03:23:04.007Z,0
2019-02-27T03:24:17.041Z,0
2019-02-27T03:25:47.552Z,0
2019-02-27T03:28:48.577Z,0
2019-02-27T03:30:19.093Z,0
2019-02-27T03:33:20.113Z,0
2019-02-27T03:34:50.062Z,0
2019-02-27T03:37:51.658Z,0
2019-02-27T03:39:04.690Z,0
2019-02-27T03:40:17.716Z,0
2019-02-27T03:43:18.076Z,0
2019-02-27T03:44:49.263Z,0
2019-02-27T03:47:50.290Z,0
2019-02-27T03:49:20.799Z,0
2019-02-27T03:52:21.817Z,0
2019-02-27T03:53:52.331Z,0
2019-02-27T03:55:05.036Z,0
2019-02-27T03:57:48.917Z,0
2019-02-27T03:59:19.042Z,0
2019-02-27T04:02:20.444Z,0
2019-02-27T04:03:50.968Z,0
2019-02-27T04:11:06.044Z,0
2019-02-27T04:12:19.084Z,0
2019-02-27T04:13:49.059Z,0
2019-02-27T04:16:50.614Z,0
2019-02-27T04:18:21.132Z,0
2019-02-27T04:22:52.670Z,0
2019-02-27T04:25:53.070Z,0
2019-02-27T04:28:19.761Z,0
2019-02-27T04:29:50.276Z,0
2019-02-27T04:31:20.794Z,0
2019-02-27T04:32:51.298Z,0
2019-02-27T04:35:52.326Z,0
2019-02-27T04:37:22.846Z,0
2019-02-27T04:40:23.864Z,0
2019-02-27T04:41:54.378Z,0
2019-02-27T04:43:07.409Z,0
2019-02-27T04:45:50.957Z,0
2019-02-27T04:47:21.477Z,0
2019-02-27T04:50:22.503Z,0
2019-02-27T04:51:53.001Z,0
2019-02-27T04:54:54.074Z,0
2019-02-27T04:56:24.546Z,0
2019-02-27T05:00:21.132Z,0
2019-02-27T05:01:51.637Z,0
2019-02-27T05:04:52.665Z,0
2019-02-27T05:06:23.203Z,0
2019-02-27T05:10:54.718Z,0
2019-02-27T05:13:55.074Z,0
2019-02-27T05:15:08.780Z,0
2019-02-27T05:20:53.347Z,0
2019-02-27T05:23:54.376Z,0
2019-02-27T05:28:25.917Z,0
2019-02-27T05:29:56.431Z,0
2019-02-27T05:31:09.464Z,0
2019-02-27T05:33:53.001Z,0
2019-02-27T05:35:23.051Z,0
2019-02-27T05:38:24.547Z,0
2019-02-27T05:39:55.057Z,0
2019-02-27T05:42:56.080Z,0
2019-02-27T05:48:23.181Z,0
2019-02-27T05:49:53.691Z,0
2019-02-27T05:52:54.716Z,0
2019-02-27T05:57:26.258Z,0
2019-02-27T06:01:57.800Z,0
2019-02-27T06:03:10.830Z,0
2019-02-27T06:04:23.863Z,0
2019-02-27T06:05:54.037Z,4
2019-02-27T06:07:24.884Z,4
2019-02-27T06:08:55.394Z,0
2019-02-27T06:13:26.940Z,0
2019-02-27T06:14:57.455Z,0
2019-02-27T06:16:27.965Z,4
2019-02-27T06:19:11.515Z,4
2019-02-27T06:20:24.549Z,0
2019-02-27T06:21:55.006Z,0
2019-02-27T08:07:53.000Z,7232
2019-02-27T08:09:05.000Z,8064
2019-02-27T08:11:59.000Z,37504
2019-02-27T09:33:45.000Z,232
2019-02-27T09:44:58.000Z,200
2019-02-27T09:48:28.878Z,252
2019-02-27T09:59:11.000Z,252
2019-02-27T09:59:17.000Z,252
2019-02-27T10:00:21.000Z,204
2019-02-27T10:01:34.430Z,240
2019-02-27T10:07:26.000Z,12
2019-02-27T10:08:39.000Z,200
2019-02-27T10:09:51.000Z,200
2019-02-27T10:11:03.000Z,192
2019-02-27T10:13:28.000Z,240
2019-02-27T10:14:40.000Z,248
2019-02-27T11:06:28.724Z,4028
2019-02-27T11:07:40.918Z,67840
2019-02-27T11:13:52.000Z,72928
2019-02-27T11:13:52.546Z,72928
2019-02-27T11:15:04.732Z,71104
2019-02-27T11:16:16.922Z,69088
2019-02-27T12:25:41.000Z,184
2019-02-27T12:49:41.000Z,20
2019-02-27T12:50:54.058Z,43168
2019-02-27T12:52:06.000Z,42528
2019-02-27T12:53:18.721Z,43488
2019-02-27T12:54:31.058Z,44448
2019-02-27T12:55:43.385Z,45696
2019-02-27T12:56:55.725Z,45184
2019-02-27T12:58:08.051Z,44192
2019-02-27T12:59:20.387Z,41440
2019-02-27T13:00:32.720Z,40352
2019-02-27T13:01:45.116Z,40096
2019-02-27T13:02:57.398Z,39328
2019-02-27T13:04:09.724Z,38560
2019-02-27T13:05:22.049Z,37696
2019-02-27T13:06:33.000Z,38176
2019-02-27T13:07:46.738Z,38080
2019-02-27T13:08:59.057Z,38080
2019-02-27T13:10:11.039Z,37056
2019-02-27T13:11:23.739Z,36384
2019-02-27T13:12:36.130Z,36960
2019-02-27T13:13:48.655Z,37504
2019-02-27T13:15:00.720Z,35712
2019-02-27T13:16:13.116Z,37056
2019-02-27T13:17:25.391Z,38272
2019-02-27T13:18:37.726Z,34976
2019-02-27T13:19:50.062Z,35648
2019-02-27T13:21:01.000Z,35904
2019-02-27T13:22:14.727Z,32800
2019-02-27T13:23:27.070Z,30848
2019-02-27T13:24:39.394Z,31936
2019-02-27T13:25:51.725Z,34656
2019-02-27T13:27:04.066Z,34688
2019-02-27T13:28:16.397Z,32960
2019-02-27T13:29:28.744Z,31776
2019-02-27T13:30:41.063Z,31776
2019-02-27T13:31:53.402Z,33600
2019-02-27T13:33:05.000Z,34944
2019-02-27T13:34:18.066Z,35904
2019-02-27T13:35:30.397Z,34528
2019-02-27T13:36:42.073Z,33472
2019-02-27T13:37:55.069Z,33312
2019-02-27T13:39:07.397Z,34464
2019-02-27T13:40:19.742Z,32896
2019-02-27T13:41:32.064Z,32672
2019-02-27T13:42:44.406Z,32928
2019-02-27T13:43:56.736Z,32992
2019-02-27T13:45:09.080Z,27072
2019-02-27T13:46:21.406Z,32608
2019-02-27T13:47:33.744Z,30048
2019-02-27T13:48:46.074Z,31136
2019-02-27T13:49:58.040Z,31136
2019-02-27T13:51:10.743Z,29568
2019-02-27T13:52:23.074Z,31168
2019-02-27T13:53:35.409Z,29952
2019-02-27T13:54:47.745Z,28416
2019-02-27T13:56:00.076Z,30368
2019-02-27T13:57:12.040Z,28384
2019-02-27T13:58:24.748Z,26592
2019-02-27T13:59:36.000Z,28128
2019-02-27T14:00:49.411Z,26176
2019-02-27T14:02:01.752Z,25952
2019-02-27T14:03:14.000Z,25760
2019-02-27T14:04:26.415Z,25088
2019-02-27T14:05:38.745Z,25088
2019-02-27T14:06:51.079Z,22624
2019-02-27T14:08:03.424Z,18656
2019-02-27T14:09:15.748Z,17216
2019-02-27T14:10:28.084Z,17664
2019-02-27T14:11:40.423Z,17952
2019-02-27T14:12:52.075Z,18176
2019-02-27T14:14:05.084Z,19488
2019-02-27T14:15:17.419Z,23520
2019-02-27T14:16:29.746Z,27904
2019-02-27T14:17:42.084Z,28640
2019-02-27T14:18:54.427Z,25472
2019-02-27T14:20:06.747Z,22208
2019-02-27T14:21:18.000Z,22048
2019-02-27T14:22:31.425Z,22304
2019-02-27T14:23:42.000Z,21664
2019-02-27T14:24:55.000Z,21664
2019-02-27T14:26:08.424Z,20704
2019-02-27T14:27:20.755Z,18400
2019-02-27T14:28:33.089Z,17152
2019-02-27T14:29:45.426Z,17216
2019-02-27T14:30:57.755Z,16384
2019-02-27T14:32:09.000Z,16576
2019-02-27T14:33:22.454Z,16992
2019-02-27T14:34:34.758Z,17120
2019-02-27T14:35:47.087Z,16352
2019-02-27T14:36:59.423Z,15904
2019-02-27T14:38:11.760Z,15104
2019-02-27T14:39:24.095Z,14592
2019-02-27T14:40:36.426Z,14816
2019-02-27T14:41:48.774Z,15200
2019-02-27T14:43:01.101Z,15872
2019-02-27T14:44:13.431Z,15808
2019-02-27T14:45:24.000Z,14528
2019-02-27T14:46:38.096Z,13760
2019-02-27T14:47:50.043Z,13992
2019-02-27T14:49:02.763Z,14192
2019-02-27T14:50:15.100Z,13604
2019-02-27T14:51:27.431Z,12688
2019-02-27T14:52:39.769Z,13016
2019-02-27T14:53:52.104Z,14016
2019-02-27T14:55:04.439Z,13276
2019-02-27T14:56:16.000Z,12768
2019-02-27T14:57:29.010Z,12972
2019-02-27T14:58:41.440Z,12836
2019-02-27T14:59:53.773Z,12840
2019-02-27T15:01:06.103Z,12592
2019-02-27T15:02:18.440Z,12476
2019-02-27T15:03:30.772Z,12824
2019-02-27T15:04:43.103Z,12664
2019-02-27T15:05:55.439Z,12136
2019-02-27T15:07:07.773Z,12260
2019-02-27T15:08:19.000Z,12072
2019-02-27T15:09:31.000Z,12216
2019-02-27T15:10:44.777Z,12284
2019-02-27T15:11:57.106Z,12440
2019-02-27T15:13:09.044Z,12184
2019-02-27T15:14:21.775Z,11968
2019-02-27T15:15:34.110Z,12104
2019-02-27T15:16:46.448Z,12168
2019-02-27T15:17:58.776Z,11860
2019-02-27T15:19:11.113Z,11492
2019-02-27T15:20:23.443Z,11948
2019-02-27T15:21:35.776Z,13120
2019-02-27T15:22:48.108Z,13248
2019-02-27T15:24:00.044Z,12192
2019-02-27T15:25:12.078Z,8004
2019-02-27T15:26:24.000Z,4844
2019-02-27T15:27:37.442Z,4596
2019-02-27T15:28:49.784Z,4552
2019-02-27T15:30:02.118Z,4540
2019-02-27T15:31:14.000Z,4552
2019-02-27T15:32:26.781Z,4624
2019-02-27T15:33:38.000Z,4616
2019-02-27T15:34:51.451Z,4364
2019-02-27T15:36:03.781Z,4292
2019-02-27T15:37:16.118Z,4276
2019-02-27T15:38:28.452Z,4960
2019-02-27T15:39:40.784Z,5548
2019-02-27T15:40:53.119Z,4404
2019-02-27T15:42:05.453Z,4020
2019-02-27T15:43:17.786Z,4148
2019-02-27T15:44:30.118Z,4132
2019-02-27T15:45:42.452Z,3976
2019-02-27T15:46:54.784Z,3860
2019-02-27T15:48:07.012Z,3832
2019-02-27T15:49:19.045Z,3800
2019-02-27T15:50:31.791Z,3728
2019-02-27T15:51:44.120Z,3676
2019-02-27T15:52:56.460Z,3636
2019-02-27T15:54:08.788Z,3604
2019-02-27T15:55:20.000Z,3560
2019-02-27T15:56:33.456Z,3496
2019-02-27T15:57:45.787Z,3412
2019-02-27T15:58:58.134Z,3308
2019-02-27T16:00:10.461Z,3240
2019-02-27T16:01:22.790Z,3160
2019-02-27T16:02:35.127Z,3072
2019-02-27T16:03:47.004Z,2984
2019-02-27T16:04:59.794Z,2888
2019-02-27T16:06:12.181Z,2804
2019-02-27T16:07:24.458Z,2720
2019-02-27T16:08:36.791Z,2640
2019-02-27T16:09:49.125Z,2560
2019-02-27T16:11:01.463Z,2488
2019-02-27T16:12:13.800Z,2408
2019-02-27T16:13:26.128Z,2320
2019-02-27T16:14:38.466Z,2232
2019-02-27T16:15:50.797Z,2136
2019-02-27T16:17:03.133Z,2036
2019-02-27T16:18:15.467Z,1936
2019-02-27T16:19:27.803Z,1836
2019-02-27T16:20:40.139Z,1736
2019-02-27T16:21:52.471Z,1636
2019-02-27T16:23:04.801Z,1548
2019-02-27T16:24:17.134Z,1452
2019-02-27T16:25:29.474Z,1368
2019-02-27T16:26:41.804Z,1288
2019-02-27T16:27:54.000Z,1208
2019-02-27T16:29:06.470Z,1124
2019-02-27T16:30:18.805Z,1048
2019-02-27T16:31:31.138Z,972
2019-02-27T16:32:42.000Z,900
2019-02-27T16:33:55.080Z,828
2019-02-27T16:35:08.146Z,760
2019-02-27T16:36:20.469Z,696
2019-02-27T16:37:32.811Z,636
2019-02-27T16:38:44.000Z,576
2019-02-27T16:39:57.483Z,524
2019-02-27T16:41:09.805Z,476
2019-02-27T16:42:22.134Z,428
2019-02-27T16:43:34.477Z,384
2019-02-27T16:44:46.810Z,340
2019-02-27T16:45:59.142Z,300
2019-02-27T16:47:11.471Z,268
2019-02-27T16:48:23.818Z,232
2019-02-27T16:49:36.146Z,200
2019-02-27T16:50:48.047Z,172
2019-02-27T16:52:00.819Z,148
2019-02-27T16:53:12.000Z,124
2019-02-27T16:54:25.480Z,108
2019-02-27T16:55:37.810Z,88
2019-02-27T16:56:50.140Z,76
2019-02-27T16:58:02.478Z,60
2019-02-27T16:59:14.081Z,52
2019-02-27T17:00:27.144Z,40
2019-02-27T17:01:39.479Z,32
2019-02-27T17:02:51.811Z,28
2019-02-27T17:04:04.152Z,20
2019-02-27T17:05:16.488Z,16
2019-02-27T17:06:28.816Z,16
2019-02-27T17:07:41.151Z,12
2019-02-27T17:08:53.481Z,12
2019-02-27T17:10:04.000Z,8
2019-02-27T17:11:18.148Z,8
2019-02-27T17:12:30.486Z,8
2019-02-27T17:13:42.000Z,4
2019-02-27T17:14:55.153Z,4
2019-02-27T17:16:07.486Z,4
2019-02-27T17:17:19.819Z,4
2019-02-27T17:18:32.001Z,4
2019-02-27T17:19:44.492Z,4
2019-02-27T17:20:56.844Z,4
2019-02-27T17:22:09.016Z,0
2019-02-27T17:23:21.491Z,0
2019-02-27T17:24:33.828Z,0
2019-02-27T17:25:46.016Z,0
2019-02-27T17:26:58.495Z,0
2019-02-27T17:28:10.833Z,0
2019-02-27T17:29:23.163Z,0
2019-02-27T17:30:35.497Z,0
2019-02-27T17:31:47.831Z,0
2019-02-27T17:33:00.165Z,0
2019-02-27T17:34:12.496Z,0
2019-02-27T17:35:24.839Z,0
2019-02-27T17:36:37.167Z,0
2019-02-27T17:37:49.503Z,0
2019-02-27T17:39:01.832Z,0
2019-02-27T17:40:14.172Z,0
2019-02-27T17:41:26.513Z,0
2019-02-27T17:42:38.899Z,0
2019-02-27T17:43:51.190Z,0
2019-02-27T17:45:03.509Z,0
2019-02-27T17:46:15.840Z,0
2019-02-27T17:47:28.017Z,0
2019-02-27T17:48:40.547Z,0
2019-02-27T17:49:52.085Z,0
2019-02-27T17:51:05.179Z,0
2019-02-27T17:52:17.512Z,0
2019-02-27T17:53:29.846Z,0
2019-02-27T17:54:42.182Z,0
2019-02-27T17:55:54.515Z,0
2019-02-27T17:57:06.850Z,0
2019-02-27T17:58:19.180Z,0
2019-02-27T17:59:31.521Z,0
2019-02-27T18:00:43.855Z,0
2019-02-27T18:01:56.186Z,0
2019-02-27T18:03:08.522Z,0
2019-02-27T18:04:20.853Z,0
2019-02-27T18:05:33.189Z,0
2019-02-27T18:06:45.520Z,0
2019-02-27T18:07:57.860Z,0
2019-02-27T18:09:10.193Z,0
2019-02-27T18:10:22.522Z,0
2019-02-27T18:11:34.863Z,0
2019-02-27T18:12:47.199Z,0
2019-02-27T18:13:59.528Z,0
2019-02-27T18:15:11.862Z,0
2019-02-27T18:16:24.195Z,0
2019-02-27T18:17:36.530Z,0
2019-02-27T18:18:48.869Z,0
2019-02-27T18:20:01.222Z,0
2019-02-27T18:21:13.533Z,0
2019-02-27T18:22:25.000Z,0
2019-02-27T18:23:38.209Z,0
2019-02-27T18:24:50.537Z,0
2019-02-27T18:26:02.878Z,0
2019-02-27T18:27:15.215Z,0
2019-02-27T18:28:27.535Z,0
2019-02-27T18:29:39.887Z,0
2019-02-27T18:30:52.212Z,0
2019-02-27T18:32:04.551Z,0
2019-02-27T18:33:16.883Z,0
2019-02-27T18:34:29.217Z,0
2019-02-27T18:35:41.552Z,0
2019-02-27T18:36:53.880Z,0
2019-02-27T18:38:06.224Z,0
2019-02-27T18:39:18.550Z,0
2019-02-27T18:40:30.890Z,0
2019-02-27T18:41:43.222Z,0
2019-02-27T18:42:55.662Z,0
2019-02-27T18:44:07.887Z,0
2019-02-27T18:45:20.221Z,0
2019-02-27T18:46:32.550Z,0
2019-02-27T18:47:44.896Z,0
2019-02-27T18:48:57.223Z,0
2019-02-27T18:50:09.557Z,0
2019-02-27T18:51:21.089Z,0
2019-02-27T18:52:34.022Z,0
2019-02-27T18:53:46.561Z,0
2019-02-27T18:54:58.896Z,0
2019-02-27T18:56:11.228Z,0
2019-02-27T18:57:23.561Z,0
2019-02-27T18:58:35.896Z,0
2019-02-27T18:59:48.000Z,0
2019-02-27T19:01:00.056Z,0
2019-02-27T19:02:12.089Z,0
2019-02-27T19:03:25.237Z,0
2019-02-27T19:04:37.572Z,0
2019-02-27T19:05:49.906Z,0
2019-02-27T19:07:02.234Z,0
2019-02-27T19:08:14.573Z,0
2019-02-27T19:09:26.903Z,0
2019-02-27T19:10:39.238Z,0
2019-02-27T19:11:51.579Z,0
2019-02-27T19:13:03.915Z,0
2019-02-27T19:14:16.247Z,0
2019-02-27T19:15:28.580Z,0
2019-02-27T19:16:40.915Z,0
2019-02-27T19:17:53.250Z,0
2019-02-27T19:19:05.000Z,0
2019-02-27T19:20:17.919Z,0
2019-02-27T19:21:30.253Z,0
2019-02-27T19:22:42.596Z,0
2019-02-27T19:23:54.926Z,0
2019-02-27T19:25:07.266Z,0
2019-02-27T19:26:19.597Z,0
2019-02-27T19:27:30.000Z,0
2019-02-27T19:28:44.258Z,0
2019-02-27T19:29:56.595Z,0
2019-02-27T19:31:08.934Z,0
2019-02-27T19:32:21.259Z,0
2019-02-27T19:33:33.599Z,0
2019-02-27T19:34:45.930Z,0
2019-02-27T19:35:58.266Z,0
2019-02-27T19:37:10.059Z,0
2019-02-27T19:38:22.933Z,0
2019-02-27T19:39:35.269Z,0
2019-02-27T19:40:47.601Z,0
2019-02-27T19:41:59.932Z,0
2019-02-27T19:43:12.270Z,0
2019-02-27T19:44:24.602Z,0
2019-02-27T19:45:36.943Z,0
2019-02-27T19:46:49.276Z,0
2019-02-27T19:48:01.613Z,0
2019-02-27T19:49:13.094Z,0
2019-02-27T19:50:26.279Z,0
2019-02-27T19:51:38.615Z,0
2019-02-27T19:52:50.942Z,0
2019-02-27T19:54:03.280Z,0
2019-02-27T19:55:15.615Z,0
2019-02-27T19:56:26.000Z,0
2019-02-27T19:57:40.285Z,0
2019-02-27T19:58:52.615Z,0
2019-02-27T20:00:04.957Z,0
2019-02-27T20:01:17.029Z,0
2019-02-27T20:02:29.627Z,0
2019-02-27T20:03:41.959Z,0
2019-02-27T20:04:54.293Z,0
2019-02-27T20:06:06.632Z,0
2019-02-27T20:07:18.963Z,0
2019-02-27T20:08:31.302Z,0
2019-02-27T20:09:43.659Z,0
2019-02-27T20:10:55.009Z,0
2019-02-27T20:12:08.030Z,0
2019-02-27T20:13:20.641Z,0
2019-02-27T20:14:32.971Z,0
2019-02-27T20:15:45.309Z,0
2019-02-27T20:16:57.064Z,0
2019-02-27T20:18:09.979Z,0
2019-02-27T20:19:22.312Z,0
2019-02-27T20:20:34.645Z,0
2019-02-27T20:21:46.991Z,0
2019-02-27T20:22:58.000Z,0
2019-02-27T20:24:11.649Z,0
2019-02-27T20:25:23.982Z,0
2019-02-27T20:26:36.312Z,0
2019-02-27T20:27:48.649Z,0
2019-02-27T20:29:00.990Z,0
2019-02-27T20:30:13.321Z,0
2019-02-27T20:31:25.655Z,0
2019-02-27T20:32:38.008Z,0
2019-02-27T20:33:50.335Z,0
2019-02-27T20:35:02.664Z,0
2019-02-27T20:36:14.997Z,0
2019-02-27T20:37:27.333Z,0
2019-02-27T20:38:39.000Z,0
2019-02-27T20:39:51.998Z,0
2019-02-27T20:41:04.335Z,0
2019-02-27T20:42:16.669Z,0
2019-02-27T20:43:28.000Z,0
2019-02-27T20:44:41.332Z,0
2019-02-27T20:45:53.666Z,0
2019-02-27T20:47:04.000Z,0
2019-02-27T20:48:18.340Z,0
2019-02-27T20:49:30.673Z,0
2019-02-27T20:50:43.001Z,0
2019-02-27T20:51:55.342Z,0
2019-02-27T20:53:07.675Z,0
2019-02-27T20:54:20.008Z,0
2019-02-27T20:55:32.346Z,0
2019-02-27T20:56:44.067Z,0
2019-02-27T20:57:57.016Z,0
2019-02-27T20:59:09.349Z,0
2019-02-27T21:00:21.685Z,0
2019-02-27T21:01:34.020Z,0
2019-02-27T21:02:45.000Z,0
2019-02-27T21:03:58.690Z,0
2019-02-27T21:05:11.040Z,0
2019-02-27T21:06:23.421Z,0
2019-02-27T21:07:35.693Z,0
2019-02-27T21:08:48.002Z,0
2019-02-27T21:10:00.364Z,0
2019-02-27T21:11:12.698Z,0
2019-02-27T21:12:25.039Z,0
2019-02-27T21:13:37.373Z,0
2019-02-27T21:14:49.702Z,0
2019-02-27T21:16:02.038Z,0
2019-02-27T21:17:14.372Z,0
2019-02-27T21:18:26.706Z,0
2019-02-27T21:19:39.036Z,0
2019-02-27T21:20:51.377Z,0
2019-02-27T21:22:03.712Z,0
2019-02-27T21:23:16.051Z,0
2019-02-27T21:24:28.376Z,0
2019-02-27T21:25:40.071Z,0
2019-02-27T21:26:53.048Z,0
2019-02-27T21:28:05.381Z,0
2019-02-27T21:29:17.719Z,0
2019-02-27T21:30:30.050Z,0
2019-02-27T21:31:42.388Z,0
2019-02-27T21:32:54.718Z,0
2019-02-27T21:34:07.059Z,0
2019-02-27T21:35:19.417Z,0
2019-02-27T21:36:31.972Z,0
2019-02-27T21:37:44.007Z,0
2019-02-27T21:38:56.000Z,0
2019-02-27T21:40:08.751Z,0
2019-02-27T21:41:21.062Z,0
2019-02-27T21:42:33.412Z,0
2019-02-27T21:43:45.736Z,0
2019-02-27T21:44:58.070Z,0
2019-02-27T21:46:10.404Z,0
2019-02-27T21:47:22.730Z,0
2019-02-27T21:48:35.068Z,0
2019-02-27T21:49:47.403Z,0
2019-02-27T21:50:59.738Z,0
2019-02-27T21:52:12.075Z,0
2019-02-27T21:53:24.410Z,0
2019-02-27T21:54:36.737Z,0
2019-02-27T21:55:49.000Z,0
2019-02-27T21:57:00.000Z,0
2019-02-27T21:58:13.747Z,0
2019-02-27T21:59:25.000Z,0
2019-02-27T22:00:38.000Z,0
2019-02-27T22:01:50.749Z,0
2019-02-27T22:03:03.089Z,0
2019-02-27T22:04:15.429Z,0
2019-02-27T22:05:27.000Z,0
2019-02-27T22:06:40.091Z,0
2019-02-27T22:07:52.422Z,0
2019-02-27T22:09:04.753Z,0
2019-02-27T22:10:17.091Z,0
2019-02-27T22:11:29.426Z,0
2019-02-27T22:12:41.761Z,0
2019-02-27T22:13:54.095Z,0
2019-02-27T22:15:06.426Z,0
2019-02-27T22:16:18.760Z,0
2019-02-27T22:17:31.009Z,0
2019-02-27T22:18:43.433Z,0
2019-02-27T22:19:55.773Z,0
2019-02-27T22:21:08.109Z,0
2019-02-27T22:22:20.437Z,0
2019-02-27T22:23:32.000Z,0
2019-02-27T22:24:45.101Z,0
2019-02-27T22:25:57.436Z,0
2019-02-27T22:27:09.771Z,0
2019-02-27T22:28:22.099Z,0
2019-02-27T22:29:34.044Z,0
2019-02-27T22:30:46.761Z,0
2019-02-27T22:31:59.096Z,0
2019-02-27T22:33:11.042Z,0
2019-02-27T22:34:23.000Z,0
2019-02-27T22:35:36.009Z,0
2019-02-27T22:36:48.042Z,0
2019-02-27T22:38:00.754Z,0
2019-02-27T22:39:13.094Z,0
2019-02-27T22:40:25.042Z,0
2019-02-27T22:41:37.075Z,0
2019-02-27T22:42:50.098Z,0
2019-02-27T22:44:02.422Z,0
2019-02-27T22:45:14.751Z,0
2019-02-27T22:46:27.097Z,0
2019-02-27T22:47:38.000Z,0
2019-02-27T22:48:51.746Z,0
2019-02-27T22:50:04.101Z,0
2019-02-27T22:51:16.411Z,0
2019-02-27T22:52:28.000Z,0
2019-02-27T22:53:41.087Z,0
2019-02-27T22:54:53.411Z,0
2019-02-27T22:56:05.748Z,0
2019-02-27T22:57:18.076Z,0
2019-02-27T22:58:29.000Z,0
2019-02-27T22:59:42.740Z,0
2019-02-27T23:00:55.074Z,0
2019-02-27T23:02:07.400Z,0
2019-02-27T23:03:19.000Z,0
2019-02-27T23:04:31.000Z,0
2019-02-27T23:05:44.397Z,0
2019-02-27T23:06:56.728Z,0
2019-02-27T23:08:09.069Z,0
2019-02-27T23:09:21.394Z,0
2019-02-27T23:10:33.735Z,0
2019-02-27T23:11:46.065Z,0
2019-02-27T23:12:58.390Z,0
2019-02-27T23:14:10.073Z,0
2019-02-27T23:15:23.057Z,0
2019-02-27T23:16:35.385Z,0
2019-02-27T23:17:47.723Z,0
2019-02-27T23:19:00.060Z,0
2019-02-27T23:20:12.386Z,0
2019-02-27T23:21:24.719Z,0
2019-02-27T23:22:37.055Z,0
2019-02-27T23:23:49.380Z,0
2019-02-27T23:25:01.718Z,0
2019-02-27T23:26:14.004Z,0
2019-02-27T23:27:26.381Z,0
2019-02-27T23:28:38.715Z,0
2019-02-27T23:29:51.038Z,0
2019-02-27T23:31:03.375Z,0
2019-02-27T23:32:15.071Z,0
2019-02-27T23:33:28.039Z,0
2019-02-27T23:34:40.369Z,0
2019-02-27T23:35:52.070Z,0
2019-02-27T23:37:04.000Z,0
2019-02-27T23:38:17.000Z,0
2019-02-27T23:39:29.695Z,0
2019-02-27T23:40:42.031Z,0
2019-02-27T23:41:54.361Z,0
2019-02-27T23:43:06.701Z,0
2019-02-27T23:44:19.021Z,0
2019-02-27T23:45:31.357Z,0
2019-02-27T23:46:43.000Z,0
2019-02-27T23:47:55.000Z,0
2019-02-27T23:49:08.352Z,0
2019-02-27T23:50:20.687Z,0
2019-02-27T23:51:33.020Z,0
2019-02-27T23:52:45.357Z,0
2019-02-27T23:53:57.069Z,0
2019-02-27T23:55:10.015Z,0
2019-02-27T23:56:22.364Z,0
2019-02-27T23:57:34.683Z,0
2019-02-27T23:58:47.013Z,0
2019-02-27T23:59:58.000Z,0
